Time;durP1;ratioP1;P1;durP2;ratioP2;P2;SDS_P1;SDS_P2;PMS_P1;PMS_P2;Temp;Humidity;BMP_temperature;BMP_pressure;BME280_temperature;BME280_humidity;BME280_pressure;Samples;Min_cycle;Max_cycle;Signal;HPM_P1;HPM_P2
2023/09/01 02:49:31;;;;;;;6.60;2.40;;;;;;;12.62;91.00;98950.33;106956;1310;544838;-43
2023/09/01 02:51:56;;;;;;;5.30;2.40;;;;;;;12.58;90.54;98952.15;107387;1313;22227;-43
2023/09/01 02:54:21;;;;;;;5.80;1.90;;;;;;;12.57;90.82;98945.40;107347;1313;22443;-44
2023/09/01 02:56:47;;;;;;;6.10;2.20;;;;;;;12.55;91.11;98943.77;107384;1313;22874;-53
2023/09/01 02:59:12;;;;;;;4.70;2.60;;;;;;;12.51;91.56;98938.23;107365;1313;22906;-44
2023/09/01 03:01:37;;;;;;;3.70;2.30;;;;;;;12.49;92.07;98938.20;107392;1313;22414;-49
2023/09/01 03:04:06;;;;;;;10.90;3.10;;;;;;;12.45;92.66;98934.56;107509;1310;144888;-45
2023/09/01 03:06:33;;;;;;;2.50;2.30;;;;;;;12.43;92.70;98934.38;107659;1310;22239;-47
2023/09/01 03:08:58;;;;;;;3.70;2.70;;;;;;;12.44;92.69;98929.61;107647;1305;23219;-48
2023/09/01 03:11:23;;;;;;;6.20;2.60;;;;;;;12.42;92.43;98932.30;107638;1310;22255;-47
2023/09/01 03:13:48;;;;;;;5.30;2.90;;;;;;;12.42;93.03;98932.90;107649;1292;22239;-48
2023/09/01 03:16:14;;;;;;;3.90;2.70;;;;;;;12.41;93.48;98932.44;107658;1310;23358;-44
2023/09/01 03:18:39;;;;;;;9.60;2.70;;;;;;;12.40;93.32;98947.30;107590;1287;22534;-46
2023/09/01 03:21:10;;;;;;;7.60;2.90;;;;;;;12.37;93.23;98949.25;107516;1308;22309;-47
2023/09/01 03:23:35;;;;;;;4.90;3.50;;;;;;;12.32;93.98;98942.57;107495;1303;22244;-46
2023/09/01 03:26:00;;;;;;;7.40;3.50;;;;;;;12.27;94.35;98935.84;107483;1311;22264;-44
2023/09/01 03:28:25;;;;;;;8.50;3.50;;;;;;;12.25;94.40;98938.75;107493;1305;22203;-50
2023/09/01 03:30:51;;;;;;;6.40;3.20;;;;;;;12.22;94.27;98931.77;107501;1311;23004;-44
2023/09/01 03:33:16;;;;;;;5.50;2.90;;;;;;;12.20;94.31;98936.48;107512;1305;22229;-49
2023/09/01 03:35:42;;;;;;;4.40;2.80;;;;;;;12.19;94.28;98942.52;107487;1311;23017;-51
2023/09/01 03:38:07;;;;;;;3.90;2.90;;;;;;;12.18;93.90;98944.69;107505;1295;22544;-53
2023/09/01 03:40:35;;;;;;;4.00;3.10;;;;;;;12.16;94.03;98950.77;107488;1311;22407;-49
2023/09/01 03:43:01;;;;;;;4.00;2.80;;;;;;;12.14;94.55;98944.80;107507;1311;22932;-44
2023/09/01 03:45:26;;;;;;;3.00;2.80;;;;;;;12.12;94.26;98941.25;107459;1311;22238;-48
2023/09/01 03:47:52;;;;;;;3.80;3.00;;;;;;;12.11;94.23;98942.73;106906;1306;22656;-51
2023/09/01 03:50:17;;;;;;;4.00;3.40;;;;;;;12.11;94.52;98941.48;107476;1311;22418;-51
2023/09/01 03:52:42;;;;;;;7.90;3.40;;;;;;;12.11;94.75;98947.47;107457;1310;22390;-43
2023/09/01 03:55:08;;;;;;;10.10;3.60;;;;;;;12.11;94.90;98951.81;107486;1311;22219;-46
2023/09/01 03:57:33;;;;;;;4.90;3.50;;;;;;;12.13;95.16;98955.23;107470;1311;22228;-43
2023/09/01 03:59:58;;;;;;;4.30;3.30;;;;;;;12.12;94.93;98957.74;107463;1311;22272;-40
2023/09/01 04:02:23;;;;;;;5.70;3.50;;;;;;;12.13;94.95;98960.35;107808;1308;23039;-48
2023/09/01 04:04:49;;;;;;;8.70;3.30;;;;;;;12.14;94.93;98965.86;107797;1302;22267;-48
2023/09/01 04:07:14;;;;;;;4.00;3.20;;;;;;;12.16;95.50;98970.15;107801;1308;23162;-50
2023/09/01 04:09:39;;;;;;;6.90;3.20;;;;;;;12.18;95.78;98967.94;107799;1304;22241;-45
2023/09/01 04:12:05;;;;;;;6.40;4.00;;;;;;;12.16;95.93;98966.65;107792;1308;23280;-45
2023/09/01 04:14:31;;;;;;;6.70;3.50;;;;;;;12.16;95.68;98966.45;107799;1292;22754;-45
2023/09/01 04:16:56;;;;;;;7.80;3.40;;;;;;;12.16;95.68;98964.69;107780;1308;22997;-46
2023/09/01 04:19:21;;;;;;;3.50;3.20;;;;;;;12.17;95.75;98963.92;107795;1308;22893;-45
2023/09/01 04:21:47;;;;;;;5.70;3.70;;;;;;;12.17;96.09;98958.33;107787;1308;23628;-56
2023/09/01 04:24:12;;;;;;;8.00;4.00;;;;;;;12.18;96.21;98957.57;107807;1308;22812;-47
2023/09/01 04:26:37;;;;;;;6.90;3.60;;;;;;;12.19;96.49;98956.73;107803;1308;23243;-43
2023/09/01 04:29:03;;;;;;;4.90;3.80;;;;;;;12.21;96.45;98965.77;107194;1308;22495;-48
2023/09/01 04:31:29;;;;;;;7.90;4.20;;;;;;;12.22;96.83;98968.15;107820;1308;22991;-52
2023/09/01 04:33:55;;;;;;;7.80;4.10;;;;;;;12.23;96.84;98966.84;107842;1298;22220;-50
2023/09/01 04:36:20;;;;;;;5.80;3.70;;;;;;;12.25;97.08;98970.91;107824;1308;23380;-48
2023/09/01 04:38:46;;;;;;;7.00;4.10;;;;;;;12.26;96.74;98963.81;107817;1308;22234;-46
2023/09/01 04:41:11;;;;;;;9.40;4.30;;;;;;;12.27;96.96;98960.08;107832;1308;23389;-44
2023/09/01 04:43:37;;;;;;;10.30;3.90;;;;;;;12.29;96.51;98961.52;107812;1308;22246;-48
2023/09/01 04:46:02;;;;;;;11.70;4.20;;;;;;;12.31;97.25;98965.27;107833;1308;22617;-44
2023/09/01 04:48:28;;;;;;;8.90;4.20;;;;;;;12.33;97.10;98964.96;107789;1305;22228;-48
2023/09/01 04:50:53;;;;;;;7.10;4.00;;;;;;;12.35;96.77;98966.77;107799;1308;22461;-46
2023/09/01 04:53:20;;;;;;;5.90;4.10;;;;;;;12.34;96.93;98969.14;107810;1305;22912;-48
2023/09/01 04:55:46;;;;;;;5.40;3.80;;;;;;;12.33;96.90;98968.30;107823;1308;23227;-46
2023/09/01 04:58:11;;;;;;;5.70;4.00;;;;;;;12.32;97.08;98970.67;107795;1308;22374;-51
2023/09/01 05:00:37;;;;;;;4.30;3.70;;;;;;;12.32;96.89;98975.79;107796;1308;22264;-45
2023/09/01 05:03:03;;;;;;;6.10;3.60;;;;;;;12.32;97.05;98981.94;107831;1308;22396;-41
2023/09/01 05:05:28;;;;;;;5.80;4.00;;;;;;;12.33;96.53;98985.91;107816;1308;23115;-44
2023/09/01 05:07:53;;;;;;;5.10;3.90;;;;;;;12.31;97.50;98984.60;107802;1308;22221;-46
2023/09/01 05:10:19;;;;;;;5.70;4.10;;;;;;;12.28;97.77;98985.66;107816;1308;22296;-46
2023/09/01 05:12:44;;;;;;;6.10;4.20;;;;;;;12.27;97.59;98987.66;107817;1308;22348;-46
2023/09/01 05:15:10;;;;;;;6.90;4.30;;;;;;;12.26;97.50;98992.64;107837;1289;22244;-50
2023/09/01 05:17:35;;;;;;;10.90;4.30;;;;;;;12.22;98.37;98995.89;107822;1293;22402;-52
2023/09/01 05:20:01;;;;;;;4.70;4.20;;;;;;;12.20;98.67;98996.58;107807;1308;22297;-50
2023/09/01 05:22:26;;;;;;;3.90;3.60;;;;;;;12.22;98.06;98996.79;107852;1307;22286;-47
2023/09/01 05:24:53;;;;;;;7.30;3.80;;;;;;;12.23;97.74;98997.94;107939;1301;22248;-50
2023/09/01 05:27:19;;;;;;;5.80;4.00;;;;;;;12.24;97.63;98999.31;107926;1307;22432;-52
2023/09/01 05:29:45;;;;;;;10.00;4.30;;;;;;;12.24;97.62;99000.33;107956;1307;22237;-51
2023/09/01 05:32:11;;;;;;;8.30;4.70;;;;;;;12.26;97.73;99006.67;107913;1307;22169;-47
2023/09/01 05:34:36;;;;;;;7.60;4.00;;;;;;;12.29;97.92;99007.25;107935;1289;22513;-47
2023/09/01 05:37:02;;;;;;;9.70;4.20;;;;;;;12.32;97.60;99008.48;107913;1307;22232;-43
2023/09/01 05:39:28;;;;;;;4.50;3.70;;;;;;;12.36;97.18;99012.95;107906;1307;22285;-49
2023/09/01 05:41:53;;;;;;;5.20;3.90;;;;;;;12.40;97.23;99011.56;107948;1289;22247;-53
2023/09/01 05:44:20;;;;;;;11.10;4.40;;;;;;;12.43;97.22;99008.60;107918;1296;22503;-45
2023/09/01 05:46:45;;;;;;;6.50;4.40;;;;;;;12.43;97.43;99012.61;107899;1307;22248;-53
2023/09/01 05:49:10;;;;;;;9.00;4.10;;;;;;;12.47;97.02;99017.30;107931;1307;22446;-49
2023/09/01 05:51:36;;;;;;;5.00;3.80;;;;;;;12.52;96.92;99016.64;107936;1307;22225;-42
2023/09/01 05:54:01;;;;;;;3.90;3.30;;;;;;;12.58;96.74;99013.55;107935;1302;23135;-52
2023/09/01 05:56:26;;;;;;;8.60;4.10;;;;;;;12.62;96.79;99009.09;107956;1296;23824;-44
2023/09/01 05:58:52;;;;;;;3.50;3.20;;;;;;;12.67;96.47;99009.56;107947;1307;22287;-49
2023/09/01 06:01:17;;;;;;;4.50;3.70;;;;;;;12.73;96.40;99008.66;107931;1307;22268;-51
2023/09/01 06:03:42;;;;;;;4.80;3.40;;;;;;;12.76;95.62;99013.08;107923;1307;23399;-49
2023/09/01 06:06:09;;;;;;;5.60;3.60;;;;;;;12.79;95.33;99017.38;107824;1292;22227;-49
2023/09/01 06:08:34;;;;;;;7.40;3.90;;;;;;;12.84;95.48;99018.65;107595;1305;22298;-45
2023/09/01 06:11:09;;;;;;;7.70;3.00;;;;;;;12.87;94.68;99023.20;107898;1301;22412;-46
2023/09/01 06:13:35;;;;;;;6.70;2.90;;;;;;;12.90;94.24;99019.98;107892;1306;22321;-49
2023/09/01 06:16:04;;;;;;;6.90;2.80;;;;;;;12.93;93.79;99022.91;107908;1294;22249;-46
2023/09/01 06:18:30;;;;;;;5.20;3.50;;;;;;;12.98;93.35;99021.68;107999;1299;22428;-44
2023/09/01 06:20:55;;;;;;;3.80;3.20;;;;;;;13.02;93.10;99027.90;107811;1299;22484;-45
2023/09/01 06:23:20;;;;;;;4.70;3.00;;;;;;;13.07;92.85;99027.23;107797;1289;22213;-45
2023/09/01 06:25:46;;;;;;;4.90;2.90;;;;;;;13.12;92.79;99028.67;107925;1307;22219;-49
2023/09/01 06:28:12;;;;;;;5.60;2.50;;;;;;;13.16;92.19;99029.25;107815;1306;22232;-42
2023/09/01 06:30:38;;;;;;;3.40;2.60;;;;;;;13.20;91.72;99030.05;107888;1298;22476;-47
2023/09/01 06:33:05;;;;;;;4.80;2.70;;;;;;;13.26;91.54;99032.95;107804;1301;22477;-46
2023/09/01 06:35:30;;;;;;;4.60;2.60;;;;;;;13.33;91.51;99031.09;107811;1301;22216;-49
2023/09/01 06:37:55;;;;;;;3.60;2.30;;;;;;;13.43;91.53;99033.04;107788;1301;22433;-54
2023/09/01 06:40:21;;;;;;;4.60;2.70;;;;;;;13.53;91.04;99034.63;107905;1285;22426;-44
2023/09/01 06:42:46;;;;;;;4.50;2.50;;;;;;;13.59;90.15;99038.08;107907;1299;22225;-48
2023/09/01 06:45:12;;;;;;;3.20;2.40;;;;;;;13.61;89.00;99038.48;107911;1285;22471;-49
2023/09/01 06:47:37;;;;;;;4.00;2.20;;;;;;;13.62;88.60;99042.94;108000;1295;22749;-52
2023/09/01 06:50:02;;;;;;;6.80;2.30;;;;;;;13.66;89.26;99042.30;107807;1301;22247;-48
2023/09/01 06:52:28;;;;;;;2.90;2.00;;;;;;;13.71;88.91;99042.46;107804;1298;23320;-51
2023/09/01 06:54:53;;;;;;;3.20;2.10;;;;;;;13.73;87.68;99043.70;107814;1296;22305;-52
2023/09/01 06:57:18;;;;;;;3.40;1.90;;;;;;;13.79;88.10;99039.23;107806;1302;22646;-44
2023/09/01 06:59:44;;;;;;;5.10;2.30;;;;;;;13.88;88.60;99042.51;107827;1286;22208;-43
2023/09/01 07:02:09;;;;;;;2.40;1.70;;;;;;;13.96;88.46;99050.20;107782;1301;22301;-44
2023/09/01 07:04:34;;;;;;;5.20;1.60;;;;;;;14.00;86.56;99053.08;107833;1298;22225;-49
2023/09/01 07:07:00;;;;;;;5.10;2.00;;;;;;;14.04;86.27;99049.26;107817;1302;23730;-48
2023/09/01 07:09:25;;;;;;;2.40;1.90;;;;;;;14.10;86.26;99047.40;107867;1298;22206;-44
2023/09/01 07:11:50;;;;;;;3.30;2.10;;;;;;;14.16;86.30;99048.04;107978;1295;23134;-51
2023/09/01 07:14:15;;;;;;;1.90;1.80;;;;;;;14.21;85.33;99046.21;107793;1302;22891;-50
2023/09/01 07:16:41;;;;;;;2.70;2.00;;;;;;;14.29;85.95;99050.92;107724;1301;22538;-52
2023/09/01 07:19:06;;;;;;;10.70;2.30;;;;;;;14.33;85.31;99048.84;107778;1302;22411;-47
2023/09/01 07:21:31;;;;;;;9.80;2.00;;;;;;;14.34;84.08;99054.13;107864;1292;23219;-43
2023/09/01 07:23:57;;;;;;;1.90;1.70;;;;;;;14.35;83.98;99058.41;107962;1299;22656;-45
2023/09/01 07:26:22;;;;;;;4.90;1.90;;;;;;;14.36;82.78;99060.30;107804;1298;22421;-52
2023/09/01 07:28:47;;;;;;;5.30;2.30;;;;;;;14.36;82.30;99057.27;107778;1295;22277;-50
2023/09/01 07:31:12;;;;;;;3.60;2.20;;;;;;;14.43;82.95;99056.05;107906;1302;22278;-47
2023/09/01 07:33:43;;;;;;;1.90;1.70;;;;;;;14.50;83.39;99056.97;107881;1292;22413;-51
2023/09/01 07:36:12;;;;;;;5.10;1.80;;;;;;;14.54;82.50;99053.49;107802;1293;22238;-48
2023/09/01 07:38:38;;;;;;;1.90;1.70;;;;;;;14.60;82.16;99055.70;107812;1302;22462;-50
2023/09/01 07:41:03;;;;;;;4.50;1.80;;;;;;;14.68;82.90;99057.55;107817;1301;22441;-46
2023/09/01 07:43:29;;;;;;;3.70;1.70;;;;;;;14.78;83.50;99055.08;107823;1302;22272;-48
2023/09/01 07:45:55;;;;;;;5.00;1.70;;;;;;;14.84;81.84;99057.03;107804;1302;22498;-47
2023/09/01 07:48:20;;;;;;;2.20;1.60;;;;;;;14.94;82.61;99060.14;107529;1295;22233;-52
2023/09/01 07:50:46;;;;;;;5.40;1.90;;;;;;;15.04;81.82;99064.57;107781;1301;22442;-47
2023/09/01 07:53:11;;;;;;;5.60;1.90;;;;;;;15.09;81.10;99065.05;107788;1301;22229;-56
2023/09/01 07:55:37;;;;;;;2.30;1.60;;;;;;;15.13;81.10;99062.60;107793;1295;23077;-45
2023/09/01 07:58:02;;;;;;;3.40;1.70;;;;;;;15.20;81.40;99063.81;107835;1295;22260;-47
2023/09/01 08:00:28;;;;;;;3.90;2.00;;;;;;;15.26;80.71;99068.98;107842;1292;22403;-46
2023/09/01 08:02:53;;;;;;;3.30;1.70;;;;;;;15.33;80.83;99061.55;107832;1301;22324;-51
2023/09/01 08:05:18;;;;;;;3.20;1.90;;;;;;;15.41;80.89;99061.12;107827;1304;22994;-48
2023/09/01 08:07:46;;;;;;;2.80;1.60;;;;;;;15.46;79.57;99061.40;107892;1289;22492;-51
2023/09/01 08:10:11;;;;;;;;;;;;;;;15.53;79.76;99061.55;107891;1301;22483;-45
2023/09/01 08:12:37;;;;;;;3.30;1.80;;;;;;;15.59;78.80;99067.45;107797;1295;22460;-43
2023/09/01 08:15:02;;;;;;;2.30;1.60;;;;;;;15.66;78.77;99066.76;107851;1299;22492;-49
2023/09/01 08:17:28;;;;;;;3.90;2.00;;;;;;;15.71;78.45;99064.70;107906;1295;22265;-44
2023/09/01 08:19:53;;;;;;;3.30;1.70;;;;;;;15.78;78.45;99063.90;107877;1295;22420;-49
2023/09/01 08:22:18;;;;;;;6.80;1.60;;;;;;;15.82;78.30;99063.55;107861;1298;22520;-45
2023/09/01 08:24:44;;;;;;;3.80;1.70;;;;;;;15.88;77.26;99068.86;107814;1300;22240;-44
2023/09/01 08:27:09;;;;;;;4.50;1.60;;;;;;;15.94;76.21;99069.11;107821;1293;22475;-43
2023/09/01 08:29:35;;;;;;;4.50;1.40;;;;;;;16.02;76.97;99071.84;107870;1301;23395;-51
2023/09/01 08:32:01;;;;;;;1.90;1.60;;;;;;;16.08;76.24;99070.06;107809;1301;23091;-47
2023/09/01 08:34:29;;;;;;;1.90;1.60;;;;;;;16.18;76.74;99072.64;107853;1292;22434;-49
2023/09/01 08:36:55;;;;;;;3.60;2.00;;;;;;;16.25;75.23;99068.70;107780;1304;22457;-43
2023/09/01 08:39:20;;;;;;;2.80;1.40;;;;;;;16.34;75.26;99070.65;107791;1296;22251;-46
2023/09/01 08:41:48;;;;;;;5.70;1.60;;;;;;;16.42;75.28;99066.38;107954;1283;23130;-45
2023/09/01 08:44:14;;;;;;;7.00;1.60;;;;;;;16.51;74.27;99068.16;107830;1285;22318;-49
2023/09/01 08:46:40;;;;;;;2.90;2.00;;;;;;;16.62;73.40;99069.05;107773;1301;22250;-47
2023/09/01 08:49:07;;;;;;;5.40;2.00;;;;;;;16.76;74.08;99068.17;107770;1292;22401;-42
2023/09/01 08:51:33;;;;;;;2.50;1.90;;;;;;;16.88;73.05;99061.73;107785;1301;22289;-51
2023/09/01 08:53:59;;;;;;;4.10;1.20;;;;;;;17.00;72.67;99067.79;107788;1295;22469;-49
2023/09/01 08:56:24;;;;;;;4.50;1.80;;;;;;;17.12;71.52;99063.54;107824;1298;22463;-45
2023/09/01 08:58:49;;;;;;;3.90;1.80;;;;;;;17.27;69.98;99065.45;107878;1295;23236;-48
2023/09/01 09:01:15;;;;;;;3.00;1.60;;;;;;;17.35;69.58;99068.52;107833;1298;22987;-44
2023/09/01 09:03:41;;;;;;;4.90;3.10;;;;;;;17.48;69.21;99062.77;107895;1292;24916;-45
2023/09/01 09:06:07;;;;;;;2.00;1.70;;;;;;;17.63;67.81;99063.23;107858;1292;22496;-46
2023/09/01 09:08:34;;;;;;;3.70;2.10;;;;;;;17.82;68.38;99066.34;107828;1299;22456;-47
2023/09/01 09:11:00;;;;;;;;;;;;;;;18.03;66.43;99072.85;107892;1292;22443;-49
2023/09/01 09:13:26;;;;;;;2.90;1.30;;;;;;;18.34;67.12;99072.55;107829;1292;22382;-52
2023/09/01 09:16:04;;;;;;;4.20;1.60;;;;;;;18.69;65.12;99073.04;107585;1304;22328;-51
2023/09/01 09:18:29;;;;;;;;;;;;;;;19.11;66.85;99071.68;107904;1296;22494;-51
2023/09/01 09:20:54;;;;;;;3.70;1.50;;;;;;;19.49;62.96;99071.74;107401;1298;22525;-49
2023/09/01 09:23:20;;;;;;;2.60;1.30;;;;;;;20.11;62.30;99076.98;107792;1292;22276;-45
2023/09/01 09:25:46;;;;;;;2.00;1.30;;;;;;;20.75;58.83;99078.34;107786;1298;23101;-44
2023/09/01 09:28:13;;;;;;;2.10;1.30;;;;;;;21.39;58.64;99078.53;107835;1301;22485;-49
2023/09/01 09:30:49;;;;;;;3.40;1.20;;;;;;;21.51;57.81;99079.88;107832;1301;23142;-44
2023/09/01 09:33:14;;;;;;;4.50;1.60;;;;;;;21.66;56.28;99077.20;107791;1301;22313;-45
2023/09/01 09:35:51;;;;;;;3.00;1.30;;;;;;;21.80;56.07;99073.08;107803;1301;22296;-46
2023/09/01 09:38:17;;;;;;;2.20;1.40;;;;;;;22.25;54.42;99075.97;107779;1298;22879;-39
2023/09/01 09:41:02;;;;;;;1.80;1.30;;;;;;;22.68;51.18;99077.46;107722;1301;22435;-45
2023/09/01 09:43:30;;;;;;;4.00;1.60;;;;;;;22.53;49.22;99076.08;107823;1301;22292;-43
2023/09/01 09:45:55;;;;;;;1.40;1.20;;;;;;;22.85;49.14;99077.22;107859;1295;22580;-43
2023/09/01 09:48:21;;;;;;;1.80;1.20;;;;;;;23.38;48.58;99081.73;107833;1298;22396;-45
2023/09/01 09:50:50;;;;;;;1.70;1.40;;;;;;;23.87;46.49;99085.27;107808;1295;22251;-44
2023/09/01 09:53:21;;;;;;;1.30;1.20;;;;;;;24.53;46.29;99088.66;107782;1296;22300;-42
2023/09/01 09:55:49;;;;;;;3.10;1.50;;;;;;;24.82;43.79;99087.02;107825;1293;22443;-45
2023/09/01 09:58:17;;;;;;;3.30;1.30;;;;;;;24.92;44.22;99091.50;107819;1301;22324;-44
2023/09/01 10:00:51;;;;;;;3.80;1.30;;;;;;;24.68;43.83;99092.08;107804;1301;22592;-47
2023/09/01 10:03:17;;;;;;;2.60;1.20;;;;;;;24.47;43.79;99090.48;107805;1299;22241;-45
2023/09/01 10:05:44;;;;;;;1.30;1.00;;;;;;;24.78;43.05;99090.39;107872;1301;22474;-47
2023/09/01 10:08:09;;;;;;;2.20;1.10;;;;;;;25.23;42.81;99090.27;107806;1292;22219;-43
2023/09/01 10:10:35;;;;;;;5.80;1.70;;;;;;;25.37;42.73;99098.44;107882;1295;22243;-50
2023/09/01 10:13:06;;;;;;;5.10;2.20;;;;;;;24.95;41.97;99096.11;107867;1299;22361;-47
2023/09/01 10:15:32;;;;;;;5.10;1.90;;;;;;;24.65;42.40;99093.41;107863;1295;22812;-47
2023/09/01 10:18:03;;;;;;;4.50;1.50;;;;;;;24.96;42.83;99094.55;107884;1301;22424;-47
2023/09/01 10:20:33;;;;;;;5.70;1.60;;;;;;;25.41;41.91;99096.58;107814;1300;22460;-49
2023/09/01 10:23:03;;;;;;;2.80;1.30;;;;;;;25.55;41.20;99092.39;107877;1298;22236;-43
2023/09/01 10:25:28;;;;;;;3.30;1.50;;;;;;;25.86;40.62;99091.14;107881;1298;22882;-48
2023/09/01 10:28:11;;;;;;;6.30;1.40;;;;;;;26.20;39.67;99087.66;107854;1293;22323;-46
2023/09/01 10:30:41;;;;;;;3.80;1.70;;;;;;;26.68;38.54;99086.15;107831;1301;22370;-43
2023/09/01 10:33:08;;;;;;;2.80;1.60;;;;;;;27.03;37.46;99089.38;107855;1301;23325;-50
2023/09/01 10:35:43;;;;;;;4.60;1.30;;;;;;;27.09;36.10;99087.33;107886;1301;22213;-45
2023/09/01 10:38:19;;;;;;;4.00;1.50;;;;;;;27.59;36.19;99085.22;107793;1301;22514;-43
2023/09/01 10:40:47;;;;;;;3.70;1.50;;;;;;;28.02;35.44;99084.06;107894;1299;22317;-54
2023/09/01 10:43:33;;;;;;;2.10;1.30;;;;;;;28.31;34.08;99087.51;107768;1301;22356;-53
2023/09/01 10:46:16;;;;;;;6.60;1.90;;;;;;;28.54;35.03;99089.44;107790;1301;23113;-41
2023/09/01 10:48:53;;;;;;;2.10;1.60;;;;;;;28.72;34.31;99088.51;107834;1298;22430;-41
2023/09/01 10:51:21;;;;;;;2.00;1.20;;;;;;;28.85;33.84;99091.14;107647;1295;22324;-43
2023/09/01 10:53:49;;;;;;;3.60;1.50;;;;;;;28.78;32.66;99085.71;107829;1299;22996;-44
2023/09/01 10:56:15;;;;;;;5.30;1.50;;;;;;;28.14;33.44;99087.55;107873;1288;22302;-47
2023/09/01 10:58:43;;;;;;;4.60;1.60;;;;;;;27.16;34.86;99088.05;107911;1302;22403;-45
2023/09/01 11:01:28;;;;;;;3.80;1.60;;;;;;;27.33;35.81;99080.14;107912;1299;22456;-45
2023/09/01 11:03:55;;;;;;;7.40;2.10;;;;;;;27.82;35.44;99078.48;107794;1301;22830;-46
2023/09/01 11:06:21;;;;;;;;;;;;;;;27.87;34.50;99076.85;107845;1292;23600;-40
2023/09/01 11:08:56;;;;;;;;;;;;;;;28.42;33.69;99079.89;107872;1300;22425;-44
2023/09/01 11:11:22;;;;;;;4.10;1.20;;;;;;;28.13;34.09;99081.55;107918;1304;23119;-47
2023/09/01 11:13:53;;;;;;;2.50;1.50;;;;;;;27.50;34.32;99082.80;107870;1305;22347;-50
2023/09/01 11:16:18;;;;;;;1.80;1.30;;;;;;;26.84;35.09;99084.84;107855;1292;22257;-45
2023/09/01 11:18:46;;;;;;;2.90;1.40;;;;;;;26.85;35.95;99081.58;107916;1300;23037;-52
2023/09/01 11:21:11;;;;;;;4.90;1.40;;;;;;;26.66;36.26;99081.00;107979;1305;22968;-47
2023/09/01 11:23:37;;;;;;;2.30;1.30;;;;;;;26.92;35.88;99084.29;107930;1307;22429;-45
2023/09/01 11:26:03;;;;;;;1.80;1.40;;;;;;;26.83;36.00;99086.08;107894;1301;23135;-45
2023/09/01 11:28:29;;;;;;;6.10;1.30;;;;;;;26.89;36.12;99087.16;107982;1292;22405;-46
2023/09/01 11:31:03;;;;;;;2.40;1.40;;;;;;;27.02;35.81;99092.51;107860;1301;22731;-47
2023/09/01 11:33:33;;;;;;;3.60;1.30;;;;;;;26.95;35.36;99089.70;107922;1300;22274;-42
2023/09/01 11:36:11;;;;;;;6.30;1.50;;;;;;;27.82;35.49;99089.42;107921;1295;23168;-47
2023/09/01 11:38:37;;;;;;;4.60;1.40;;;;;;;28.04;34.37;99085.79;107851;1299;22487;-49
2023/09/01 11:41:05;;;;;;;1.80;1.40;;;;;;;27.67;35.05;99091.69;107688;1295;22360;-50
2023/09/01 11:43:30;;;;;;;4.90;1.60;;;;;;;27.26;35.20;99090.92;107861;1301;22233;-48
2023/09/01 11:45:56;;;;;;;2.60;1.30;;;;;;;26.55;36.43;99087.52;107802;1304;23132;-48
2023/09/01 11:48:25;;;;;;;2.80;1.50;;;;;;;26.10;37.70;99087.73;107840;1307;22428;-45
2023/09/01 11:50:55;;;;;;;1.60;1.40;;;;;;;26.83;36.96;99084.27;107909;1295;22719;-50
2023/09/01 11:53:22;;;;;;;2.50;1.30;;;;;;;27.78;35.79;99085.58;107959;1292;23130;-48
2023/09/01 11:55:48;;;;;;;1.70;1.30;;;;;;;28.38;34.27;99086.20;107879;1292;22347;-47
2023/09/01 11:58:13;;;;;;;5.80;1.80;;;;;;;28.71;33.99;99082.77;107879;1295;22234;-42
2023/09/01 12:00:39;;;;;;;6.30;1.60;;;;;;;29.47;33.41;99089.13;107836;1292;23245;-44
2023/09/01 12:03:05;;;;;;;1.30;1.20;;;;;;;30.04;30.89;99091.69;107872;1292;22446;-44
2023/09/01 12:05:32;;;;;;;2.20;1.30;;;;;;;30.12;29.69;99090.61;107904;1298;22940;-47
2023/09/01 12:08:00;;;;;;;2.30;1.30;;;;;;;30.70;29.62;99090.69;107948;1292;22231;-48
2023/09/01 12:10:25;;;;;;;3.10;1.10;;;;;;;31.09;28.96;99088.26;107877;1302;23298;-46
2023/09/01 12:13:01;;;;;;;3.60;1.30;;;;;;;31.23;28.96;99085.63;107893;1301;23105;-44
2023/09/01 12:15:26;;;;;;;2.00;1.40;;;;;;;30.14;29.61;99085.02;107856;1305;22358;-42
2023/09/01 12:17:52;;;;;;;2.00;1.40;;;;;;;30.71;29.42;99082.77;107817;1301;22320;-43
2023/09/01 12:20:17;;;;;;;2.90;1.30;;;;;;;31.68;29.51;99083.95;107784;1302;22200;-46
2023/09/01 12:22:42;;;;;;;2.20;1.30;;;;;;;32.47;27.46;99086.48;107886;1292;22914;-47
2023/09/01 12:25:07;;;;;;;3.10;1.30;;;;;;;32.91;27.35;99084.59;107865;1299;22627;-48
2023/09/01 12:27:33;;;;;;;2.00;1.10;;;;;;;33.30;26.64;99091.61;107872;1295;22630;-49
2023/09/01 12:29:58;;;;;;;1.60;1.00;;;;;;;33.56;26.34;99096.16;107908;1301;22308;-45
2023/09/01 12:32:27;;;;;;;1.50;1.30;;;;;;;33.81;26.62;99094.79;107811;1292;23021;-51
2023/09/01 12:34:52;;;;;;;3.00;1.30;;;;;;;33.99;25.39;99088.98;107907;1301;22432;-46
2023/09/01 12:37:18;;;;;;;1.90;1.10;;;;;;;33.46;25.77;99093.40;107943;1292;22248;-49
2023/09/01 12:39:43;;;;;;;3.60;1.20;;;;;;;32.03;26.93;99090.48;107857;1292;23143;-44
2023/09/01 12:42:09;;;;;;;1.90;1.80;;;;;;;31.09;28.61;99089.66;107832;1298;22256;-48
2023/09/01 12:44:35;;;;;;;1.60;1.40;;;;;;;30.37;29.32;99091.16;107889;1292;22488;-42
2023/09/01 12:47:00;;;;;;;2.50;1.70;;;;;;;29.57;30.38;99093.84;107872;1299;22402;-42
2023/09/01 12:49:26;;;;;;;4.00;1.90;;;;;;;28.64;31.40;99089.23;107827;1307;22206;-47
2023/09/01 12:51:51;;;;;;;2.50;1.70;;;;;;;27.75;32.54;99085.05;107873;1295;22362;-47
2023/09/01 12:54:16;;;;;;;3.00;1.50;;;;;;;27.59;33.01;99082.45;107690;1306;22238;-42
2023/09/01 12:56:43;;;;;;;4.60;1.70;;;;;;;28.35;33.22;99079.71;107873;1300;22439;-47
2023/09/01 12:59:09;;;;;;;2.10;1.10;;;;;;;29.06;31.79;99078.63;107751;1292;23183;-46
2023/09/01 13:01:34;;;;;;;5.10;1.40;;;;;;;30.01;30.75;99077.50;107933;1301;22231;-45
2023/09/01 13:04:00;;;;;;;5.80;1.70;;;;;;;30.89;29.34;99074.48;107879;1292;22369;-44
2023/09/01 13:06:25;;;;;;;3.80;2.00;;;;;;;31.20;28.56;99079.99;107878;1295;23133;-45
2023/09/01 13:08:51;;;;;;;1.40;1.30;;;;;;;31.41;28.44;99083.58;107909;1301;22965;-50
2023/09/01 13:11:16;;;;;;;2.80;1.50;;;;;;;31.75;27.67;99081.54;107832;1302;22382;-48
2023/09/01 13:13:42;;;;;;;6.20;1.70;;;;;;;31.41;27.67;99079.73;107857;1295;22401;-42
2023/09/01 13:16:11;;;;;;;2.80;1.50;;;;;;;31.32;27.53;99081.66;107880;1298;23011;-44
2023/09/01 13:18:38;;;;;;;4.50;1.40;;;;;;;30.99;27.19;99076.11;107922;1298;22433;-46
2023/09/01 13:21:04;;;;;;;5.20;1.40;;;;;;;30.62;28.04;99073.95;107901;1292;23116;-55
2023/09/01 13:23:29;;;;;;;4.50;1.70;;;;;;;30.37;28.29;99075.87;107873;1298;23135;-41
2023/09/01 13:25:55;;;;;;;2.10;1.70;;;;;;;30.04;29.30;99079.20;107862;1298;22233;-41
2023/09/01 13:28:21;;;;;;;6.90;1.50;;;;;;;29.32;30.38;99078.33;107814;1298;22239;-43
2023/09/01 13:30:47;;;;;;;2.40;1.40;;;;;;;28.86;30.91;99083.40;107658;1303;22292;-47
2023/09/01 13:33:13;;;;;;;4.00;1.20;;;;;;;28.27;31.42;99081.56;107895;1292;22251;-52
2023/09/01 13:35:39;;;;;;;3.40;1.60;;;;;;;27.66;31.77;99077.05;107913;1295;22332;-44
2023/09/01 13:38:05;;;;;;;7.20;1.50;;;;;;;27.37;32.46;99073.89;107849;1304;22212;-44
2023/09/01 13:40:30;;;;;;;4.10;1.50;;;;;;;27.00;33.04;99072.44;107936;1307;23157;-46
2023/09/01 13:42:55;;;;;;;3.80;1.60;;;;;;;26.71;33.50;99065.88;107928;1292;22976;-48
2023/09/01 13:45:21;;;;;;;11.60;1.80;;;;;;;26.44;34.14;99069.20;107916;1301;23084;-42
2023/09/01 13:47:46;;;;;;;3.30;1.60;;;;;;;26.11;34.50;99067.77;107872;1304;22200;-40
2023/09/01 13:50:11;;;;;;;2.30;1.70;;;;;;;25.67;34.85;99068.80;107911;1292;22424;-46
2023/09/01 13:52:37;;;;;;;2.50;1.60;;;;;;;25.37;36.09;99065.97;107891;1305;23001;-49
2023/09/01 13:55:02;;;;;;;2.70;1.40;;;;;;;25.24;35.79;99074.89;107817;1298;22329;-46
2023/09/01 13:57:27;;;;;;;5.10;1.40;;;;;;;24.91;36.08;99076.32;107927;1298;23246;-42
2023/09/01 13:59:53;;;;;;;2.40;1.20;;;;;;;24.77;36.53;99072.28;107926;1292;22368;-49
2023/09/01 14:02:19;;;;;;;3.70;1.60;;;;;;;24.48;37.33;99073.80;107914;1292;22743;-50
2023/09/01 14:04:45;;;;;;;3.00;1.40;;;;;;;24.35;37.32;99070.67;107774;1302;22527;-45
2023/09/01 14:07:10;;;;;;;3.10;1.50;;;;;;;23.99;37.99;99060.48;107866;1295;22813;-48
2023/09/01 14:09:36;;;;;;;3.20;1.50;;;;;;;23.87;38.60;99058.52;107848;1304;22306;-48
2023/09/01 14:12:03;;;;;;;3.40;1.40;;;;;;;23.75;39.53;99063.01;107962;1297;22252;-45